Albertville, AL

3:45 PM CDT on April 25, 2017 (GMT -0500)
Albertville

Weather History for K8A0 - January, 2014

Change the Weather History Date:

Tuesday, January 21, 2014

  Actual Average (KGAD) Record (KGAD)
Temperature  
Mean Temperature 32 °F -  
Max Temperature 46 °F 49 °F 77 °F (1937)
Min Temperature 19 °F 29 °F 11 °F (1940)
Degree Days  
Heating Degree Days 32    
Moisture  
Dew Point 26 °F    
Average Humidity 72    
Maximum Humidity 87    
Minimum Humidity 57    
Precipitation  
Precipitation 0.00 in - - ()
Sea Level Pressure  
Sea Level Pressure 29.95 in    
Wind  
Wind Speed 11 mph (NW)    
Max Wind Speed 23 mph    
Max Gust Speed 34 mph    
Visibility 10 miles    
Events      
Averages and records for this station are not official NWS values.
T = Trace of Precipitation, MM = Missing Value Source: NWS Daily Summary

Daily Weather History Graph

Daily Weather History Graph

Search for Another Location

Airport or City:

Trip Planner

Search our weather history database for the weather conditions in past years. The results will help you decide how hot, cold, wet, or windy it might be!

Date:

Astronomy

Jan. 21, 2014 Rise Set
Actual Time 6:48 AM CST 5:04 PM CST
Civil Twilight 6:21 AM CST 5:31 PM CST
Nautical Twilight 5:51 AM CST 6:01 PM CST
Astronomical Twilight 5:21 AM CST 6:31 PM CST
Moon 10:19 PM CST (1/21) 9:33 AM CST (1/21)
Length of Visible Light 11h 09m
Length of Day
10h 15m
Waning Gibbous, 74% of the Moon is Illuminated
Jan 21
Waning Gibbous
Jan 23
Last Quarter
Jan 30
New
Feb 6
First Quarter
Feb 14
Full

Hourly Weather History & Observations

Time (CST) Temp. Windchill Dew Point Humidity Pressure Visibility Wind Dir Wind Speed Gust Speed Precip Events Conditions
12:15 AM 46.4 °F 42.9 °F 32.0 °F 57% 29.85 in 10.0 mi SW 6.9 mph - N/A   Scattered Clouds
12:35 AM 46.4 °F 43.5 °F 32.0 °F 57% 29.83 in 10.0 mi SW 5.8 mph - N/A   Scattered Clouds
12:55 AM 44.6 °F 40.2 °F 32.0 °F 61% 29.82 in 10.0 mi SSW 8.1 mph - N/A   Scattered Clouds
1:15 AM 44.6 °F 40.7 °F 32.0 °F 61% 29.81 in 10.0 mi SSW 6.9 mph - N/A   Scattered Clouds
1:35 AM 44.6 °F 40.7 °F 32.0 °F 61% 29.80 in 10.0 mi SW 6.9 mph - N/A   Clear
1:55 AM 44.6 °F 40.7 °F 33.8 °F 66% 29.79 in 10.0 mi SW 6.9 mph - N/A   Mostly Cloudy
2:15 AM 44.6 °F 40.7 °F 33.8 °F 66% 29.79 in 10.0 mi SW 6.9 mph - N/A   Overcast
2:35 AM 46.4 °F 41.9 °F 33.8 °F 62% 29.78 in 10.0 mi WSW 9.2 mph - N/A   Overcast
2:55 AM 44.6 °F 40.7 °F 33.8 °F 66% 29.79 in 10.0 mi West 6.9 mph - N/A   Mostly Cloudy
3:15 AM 44.6 °F 40.7 °F 33.8 °F 66% 29.78 in 10.0 mi WSW 6.9 mph - N/A   Scattered Clouds
3:35 AM 42.8 °F 37.5 °F 33.8 °F 70% 29.78 in 10.0 mi West 9.2 mph - N/A   Scattered Clouds
3:55 AM 44.6 °F 39.7 °F 33.8 °F 66% 29.77 in 10.0 mi West 9.2 mph - N/A   Mostly Cloudy
4:15 AM 44.6 °F 39.7 °F 33.8 °F 66% 29.77 in 10.0 mi West 9.2 mph - N/A   Mostly Cloudy
4:35 AM 42.8 °F 37.5 °F 33.8 °F 70% 29.78 in 10.0 mi West 9.2 mph - N/A   Scattered Clouds
4:55 AM 42.8 °F 38.0 °F 33.8 °F 70% 29.78 in 10.0 mi WNW 8.1 mph - N/A   Scattered Clouds
5:15 AM 42.8 °F 36.6 °F 33.8 °F 70% 29.79 in 10.0 mi NW 11.5 mph 16.1 mph N/A   Scattered Clouds
5:35 AM 42.8 °F 36.6 °F 33.8 °F 70% 29.80 in 10.0 mi NW 11.5 mph 17.3 mph N/A   Scattered Clouds
5:55 AM 42.8 °F 35.8 °F 33.8 °F 70% 29.81 in 10.0 mi NW 13.8 mph - N/A   Clear
6:15 AM 42.8 °F 35.8 °F 32.0 °F 66% 29.82 in 10.0 mi NNW 13.8 mph 19.6 mph N/A   Scattered Clouds
6:35 AM 41.0 °F 35.2 °F 33.8 °F 76% 29.82 in 10.0 mi NW 9.2 mph 16.1 mph N/A   Scattered Clouds
6:55 AM 41.0 °F 34.7 °F 32.0 °F 70% 29.83 in 10.0 mi NW 10.4 mph 19.6 mph N/A   Clear
7:15 AM 41.0 °F 34.7 °F 32.0 °F 70% 29.84 in 10.0 mi NW 10.4 mph 23.0 mph N/A   Clear
7:35 AM 41.0 °F 35.8 °F 32.0 °F 70% 29.85 in 10.0 mi NW 8.1 mph 17.3 mph N/A   Clear
7:55 AM 41.0 °F 33.5 °F 33.8 °F 76% 29.86 in 10.0 mi NNW 13.8 mph 24.2 mph N/A   Clear
8:15 AM 41.0 °F 33.9 °F 33.8 °F 76% 29.87 in 10.0 mi NW 12.7 mph 21.9 mph N/A   Scattered Clouds
8:35 AM 41.0 °F 33.5 °F 33.8 °F 76% 29.87 in 10.0 mi NW 13.8 mph 20.7 mph N/A   Scattered Clouds
8:55 AM 41.0 °F 32.5 °F 33.8 °F 76% 29.88 in 10.0 mi NW 17.3 mph 24.2 mph N/A   Mostly Cloudy
9:15 AM 41.0 °F 32.5 °F 32.0 °F 70% 29.89 in 10.0 mi NNW 17.3 mph 27.6 mph N/A   Overcast
9:35 AM 41.0 °F 33.1 °F 32.0 °F 70% 29.90 in 10.0 mi NW 15.0 mph 28.8 mph N/A   Overcast
9:55 AM 41.0 °F 32.5 °F 32.0 °F 70% 29.90 in 10.0 mi NW 17.3 mph 23.0 mph N/A   Overcast
10:15 AM 41.0 °F 31.1 °F 32.0 °F 70% 29.92 in 10.0 mi WNW 23.0 mph 27.6 mph N/A   Overcast
10:35 AM 39.2 °F 32.0 °F 32.0 °F 75% 29.92 in 10.0 mi NW 11.5 mph 24.2 mph N/A   Overcast
10:55 AM 39.2 °F 29.6 °F 32.0 °F 75% 29.92 in 10.0 mi WNW 19.6 mph 25.3 mph N/A   Overcast
11:15 AM 39.2 °F 28.7 °F 30.2 °F 70% 29.93 in 10.0 mi WNW 23.0 mph 31.1 mph N/A   Overcast
11:35 AM - - - N/A% 29.93 in 10.0 mi NW 18.4 mph 34.5 mph N/A   Overcast
11:55 AM 37.4 °F 27.2 °F 30.2 °F 75% 29.93 in 10.0 mi NW 19.6 mph 28.8 mph N/A   Overcast
12:15 PM 37.4 °F 26.4 °F 30.2 °F 75% 29.93 in 10.0 mi NW 23.0 mph 34.5 mph N/A   Overcast
12:35 PM 35.6 °F 24.8 °F 30.2 °F 81% 29.94 in 10.0 mi NW 19.6 mph 31.1 mph N/A   Overcast
12:55 PM 33.8 °F 23.2 °F 28.4 °F 81% 29.94 in 10.0 mi NW 17.3 mph 29.9 mph N/A   Overcast
1:15 PM 33.8 °F 23.5 °F 28.4 °F 81% 29.95 in 10.0 mi NW 16.1 mph 27.6 mph N/A   Overcast
1:35 PM 32.0 °F 21.6 °F 28.4 °F 87% 29.96 in 10.0 mi NW 15.0 mph 23.0 mph N/A   Overcast
1:55 PM 32.0 °F 19.8 °F 26.6 °F 80% 29.97 in 10.0 mi NNW 20.7 mph 25.3 mph N/A   Overcast
2:15 PM 32.0 °F 19.5 °F 23.0 °F 69% 29.98 in 10.0 mi NW 21.9 mph 29.9 mph N/A   Overcast
2:35 PM 32.0 °F 21.6 °F 24.8 °F 75% 29.98 in 10.0 mi NW 15.0 mph 26.5 mph N/A   Overcast
2:55 PM 30.2 °F 19.3 °F 24.8 °F 80% 30.00 in 10.0 mi NW 15.0 mph 25.3 mph N/A   Overcast
3:15 PM 30.2 °F 21.3 °F 23.0 °F 75% 30.00 in 10.0 mi NNW 10.4 mph 20.7 mph N/A   Overcast
3:35 PM 30.2 °F 20.8 °F 23.0 °F 75% 30.02 in 10.0 mi NW 11.5 mph 17.3 mph N/A   Overcast
3:55 PM 30.2 °F 17.4 °F 21.2 °F 69% 30.03 in 10.0 mi North 20.7 mph 25.3 mph N/A   Overcast
4:15 PM 28.4 °F 16.2 °F 19.4 °F 69% 30.05 in 10.0 mi NNW 17.3 mph 23.0 mph N/A   Overcast
4:35 PM 28.4 °F 16.6 °F 19.4 °F 69% 30.06 in 10.0 mi North 16.1 mph 20.7 mph N/A   Overcast
4:55 PM 28.4 °F 16.6 °F 19.4 °F 69% 30.07 in 10.0 mi NNW 16.1 mph 21.9 mph N/A   Overcast
5:15 PM 28.4 °F 17.0 °F 19.4 °F 69% 30.08 in 10.0 mi NNW 15.0 mph 19.6 mph N/A   Overcast
5:35 PM 26.6 °F 15.7 °F 19.4 °F 74% 30.09 in 10.0 mi North 12.7 mph 20.7 mph N/A   Overcast
5:55 PM 26.6 °F 15.2 °F 19.4 °F 74% 30.09 in 10.0 mi North 13.8 mph 19.6 mph N/A   Overcast
6:15 PM 26.6 °F 14.3 °F 17.6 °F 69% 30.09 in 10.0 mi North 16.1 mph 20.7 mph N/A   Overcast
6:35 PM 24.8 °F 13.4 °F 17.6 °F 74% 30.10 in 10.0 mi North 12.7 mph - N/A   Overcast
6:55 PM 24.8 °F 12.4 °F 17.6 °F 74% 30.10 in 10.0 mi North 15.0 mph 21.9 mph N/A   Scattered Clouds
7:15 PM 23.0 °F 10.1 °F 17.6 °F 80% 30.11 in 10.0 mi NNW 15.0 mph 21.9 mph N/A   Clear
7:35 PM 23.0 °F 9.2 °F 17.6 °F 80% 30.10 in 10.0 mi NNW 17.3 mph 23.0 mph N/A   Clear
7:55 PM 23.0 °F 9.2 °F 17.6 °F 80% 30.10 in 10.0 mi NNW 17.3 mph 20.7 mph N/A   Clear
8:15 PM 23.0 °F 12.4 °F 15.8 °F 74% 30.10 in 10.0 mi NNW 10.4 mph 18.4 mph N/A   Clear
8:35 PM 23.0 °F 10.6 °F 15.8 °F 74% 30.10 in 10.0 mi North 13.8 mph - N/A   Clear
8:55 PM 21.2 °F 9.5 °F 15.8 °F 80% 30.09 in 10.0 mi NNW 11.5 mph - N/A   Clear
9:15 PM 21.2 °F 9.5 °F 15.8 °F 80% 30.11 in 10.0 mi NNW 11.5 mph - N/A   Scattered Clouds
9:35 PM 21.2 °F 8.9 °F 15.8 °F 80% 30.11 in 10.0 mi North 12.7 mph 16.1 mph N/A   Overcast
9:55 PM 21.2 °F 9.5 °F 15.8 °F 80% 30.11 in 10.0 mi North 11.5 mph 18.4 mph N/A   Overcast
10:15 PM 21.2 °F 7.8 °F 14.0 °F 74% 30.10 in 10.0 mi North 15.0 mph - N/A   Overcast
10:35 PM 21.2 °F 10.9 °F 12.2 °F 68% 30.11 in 10.0 mi North 9.2 mph 18.4 mph N/A   Mostly Cloudy
10:55 PM 21.2 °F 11.7 °F 12.2 °F 68% 30.10 in 10.0 mi North 8.1 mph 16.1 mph N/A   Mostly Cloudy
11:15 PM 19.4 °F 7.9 °F 14.0 °F 80% 30.11 in 10.0 mi North 10.4 mph - N/A   Scattered Clouds
11:35 PM 19.4 °F 7.9 °F 12.2 °F 74% 30.11 in 10.0 mi NNW 10.4 mph 17.3 mph N/A   Scattered Clouds
11:55 PM 19.4 °F 10.4 °F 12.2 °F 74% 30.11 in 10.0 mi NNW 6.9 mph - N/A   Clear